Time;durP1;ratioP1;P1;durP2;ratioP2;P2;SDS_P1;SDS_P2;PMS_P1;PMS_P2;Temp;Humidity;BMP_temperature;BMP_pressure;BME280_temperature;BME280_humidity;BME280_pressure;Samples;Min_cycle;Max_cycle;Signal;HPM_P1;HPM_P2
2022/10/20 00:01:44;;;;;;;;;;;;;;;;;;5114586;28;1581;-52
2022/10/20 00:04:11;;;;;;;;;;;;;;;;;;5114314;28;1806;-46
2022/10/20 00:06:41;;;;;;;;;;;;;;;;;;5114405;28;1964;-50
2022/10/20 00:09:08;;;;;;;;;;;;;;;;;;5114125;28;1880;-47
2022/10/20 00:11:35;;;;;;;;;;;;;;;;;;5114403;28;1976;-51
2022/10/20 00:14:03;;;;;;;;;;;;;;;;;;5114398;28;2034;-51
2022/10/20 00:16:31;;;;;;;;;;;;;;;;;;5114441;28;1985;-49
2022/10/20 00:18:58;;;;;;;;;;;;;;;;;;5114258;28;1906;-48
2022/10/20 00:21:26;;;;;;;;;;;;;;;;;;5114115;28;1800;-50
2022/10/20 00:23:54;;;;;;;;;;;;;;;;;;5113981;28;1572;-52
2022/10/20 00:26:23;;;;;;;;;;;;;;;;;;5114054;28;1992;-47
2022/10/20 00:28:50;;;;;;;;;;;;;;;;;;5113897;28;1776;-44
2022/10/20 00:31:19;;;;;;;;;;;;;;;;;;5113688;28;1801;-49
2022/10/20 00:33:46;;;;;;;;;;;;;;;;;;5103088;28;1820;-52
2022/10/20 00:36:14;;;;;;;;;;;;;;;;;;5093251;28;2112;-53
2022/10/20 00:38:42;;;;;;;;;;;;;;;;;;5093422;28;1839;-47
2022/10/20 00:41:11;;;;;;;;;;;;;;;;;;5093233;28;2041;-43
2022/10/20 00:43:54;;;;;;;;;;;;;;;;;;5093648;28;1910;-51
2022/10/20 00:46:23;;;;;;;;;;;;;;;;;;5093326;28;2045;-49
2022/10/20 00:48:52;;;;;;;;;;;;;;;;;;5093042;28;1442;-49
2022/10/20 00:51:20;;;;;;;;;;;;;;;;;;5093078;28;2129;-51
2022/10/20 00:53:49;;;;;;;;;;;;;;;;;;5093024;28;1784;-48
2022/10/20 00:56:16;;;;;;;;;;;;;;;;;;5093124;28;1576;-53
2022/10/20 00:58:44;;;;;;;;;;;;;;;;;;5093177;28;1958;-49
2022/10/20 01:01:12;;;;;;;;;;;;;;;;;;5092663;28;2025;-49
2022/10/20 01:03:47;;;;;;;;;;;;;;;;;;5092819;28;1891;-51
2022/10/20 01:06:15;;;;;;;;;;;;;;;;;;5093068;28;2075;-49
2022/10/20 01:08:49;;;;;;;;;;;;;;;;;;5092866;28;1722;-47
2022/10/20 01:11:39;;;;;;;;;;;;;;;;;;5092744;28;1528;-47
2022/10/20 01:14:24;;;;;;;;;;;;;;;;;;5092654;28;2189;-53
2022/10/20 01:17:06;;;;;;;;;;;;;;;;;;5092735;28;2139;-49
2022/10/20 01:19:45;;;;;;;;;;;;;;;;;;5092430;28;1924;-49
2022/10/20 01:22:15;;;;;;;;;;;;;;;;;;5092446;28;2106;-46
2022/10/20 01:24:49;;;;;;;;;;;;;;;;;;5092455;28;2065;-44
2022/10/20 01:27:26;;;;;;;;;;;;;;;;;;5092492;28;2290;-49
2022/10/20 01:29:56;;;;;;;;;;;;;;;;;;5092427;28;1503;-48
2022/10/20 01:32:37;;;;;;;;;;;;;;;;;;5092324;28;1505;-50
2022/10/20 01:35:36;;;;;;;;;;;;;;;;;;5092522;28;1416;-49
2022/10/20 01:38:15;;;;;;;;;;;;;;;;;;5091281;28;2087;-48
2022/10/20 01:40:49;;;;;;;;;;;;;;;;;;5091901;28;2070;-46
2022/10/20 01:43:18;;;;;;;;;;;;;;;;;;5092016;28;1948;-49
2022/10/20 01:45:46;;;;;;;;;;;;;;;;;;5092161;28;1999;-49
2022/10/20 01:48:14;;;;;;;;;;;;;;;;;;5092028;28;1748;-45
2022/10/20 01:50:42;;;;;;;;;;;;;;;;;;5091976;28;2061;-48
2022/10/20 01:53:09;;;;;;;;;;;;;;;;;;5092241;28;1756;-50
2022/10/20 01:55:37;;;;;;;;;;;;;;;;;;5092064;28;1804;-49
2022/10/20 01:58:16;;;;;;;;;;;;;;;;;;5091954;28;1835;-50
2022/10/20 02:00:44;;;;;;;;;;;;;;;;;;5092013;28;1980;-46
2022/10/20 02:03:29;;;;;;;;;;;;;;;;;;5091598;28;2161;-44
2022/10/20 02:06:09;;;;;;;;;;;;;;;;;;5091559;28;1518;-47
2022/10/20 02:08:40;;;;;;;;;;;;;;;;;;5091880;28;2021;-50
2022/10/20 02:11:11;;;;;;;;;;;;;;;;;;5091981;28;2102;-47
2022/10/20 02:13:38;;;;;;;;;;;;;;;;;;5091836;28;2019;-42
2022/10/20 02:16:12;;;;;;;;;;;;;;;;;;5091652;28;1903;-52
2022/10/20 02:18:40;;;;;;;;;;;;;;;;;;5091711;28;1768;-46
2022/10/20 02:21:08;;;;;;;;;;;;;;;;;;5091570;28;1984;-47
2022/10/20 02:23:36;;;;;;;;;;;;;;;;;;5091408;28;1936;-48
2022/10/20 02:26:05;;;;;;;;;;;;;;;;;;5091597;28;1958;-45
2022/10/20 02:28:34;;;;;;;;;;;;;;;;;;5091305;28;1629;-52
2022/10/20 02:31:01;;;;;;;;;;;;;;;;;;5089066;28;2005;-48
2022/10/20 02:33:29;;;;;;;;;;;;;;;;;;5091415;28;1488;-48
2022/10/20 02:35:57;;;;;;;;;;;;;;;;;;5091217;28;1814;-50
2022/10/20 02:38:24;;;;;;;;;;;;;;;;;;5091326;28;1917;-47
2022/10/20 02:40:51;;;;;;;;;;;;;;;;;;5091207;28;1910;-49
2022/10/20 02:43:18;;;;;;;;;;;;;;;;;;5090853;28;1303;-47
2022/10/20 02:45:45;;;;;;;;;;;;;;;;;;5091433;28;1592;-51
2022/10/20 02:48:12;;;;;;;;;;;;;;;;;;5091531;28;1846;-48
2022/10/20 02:50:39;;;;;;;;;;;;;;;;;;5091458;28;1815;-49
2022/10/20 02:53:06;;;;;;;;;;;;;;;;;;5091324;28;1933;-40
2022/10/20 02:55:33;;;;;;;;;;;;;;;;;;5091222;28;1905;-52
2022/10/20 02:58:03;;;;;;;;;;;;;;;;;;5091148;28;1954;-46
2022/10/20 03:00:30;;;;;;;;;;;;;;;;;;5091070;28;1914;-52
2022/10/20 03:02:57;;;;;;;;;;;;;;;;;;5091033;28;1742;-51
2022/10/20 03:05:25;;;;;;;;;;;;;;;;;;5091063;28;1662;-49
2022/10/20 03:07:52;;;;;;;;;;;;;;;;;;5091121;28;1563;-52
2022/10/20 03:10:20;;;;;;;;;;;;;;;;;;5090896;28;1823;-45
2022/10/20 03:12:47;;;;;;;;;;;;;;;;;;5090880;28;1611;-48
2022/10/20 03:15:14;;;;;;;;;;;;;;;;;;5090913;28;1855;-45
2022/10/20 03:17:41;;;;;;;;;;;;;;;;;;5091128;28;1828;-50
2022/10/20 03:20:08;;;;;;;;;;;;;;;;;;5090904;28;1973;-54
2022/10/20 03:22:35;;;;;;;;;;;;;;;;;;5091077;28;1709;-46
2022/10/20 03:25:02;;;;;;;;;;;;;;;;;;5090535;28;2020;-45
2022/10/20 03:27:29;;;;;;;;;;;;;;;;;;5091244;28;2042;-49
2022/10/20 03:29:56;;;;;;;;;;;;;;;;;;5072971;28;1462;-49
2022/10/20 03:32:23;;;;;;;;;;;;;;;;;;5090970;28;2159;-49
2022/10/20 03:34:51;;;;;;;;;;;;;;;;;;5110434;28;2169;-47
2022/10/20 03:37:18;;;;;;;;;;;;;;;;;;5111156;28;1536;-47
2022/10/20 03:39:46;;;;;;;;;;;;;;;;;;5111137;28;1922;-51
2022/10/20 03:42:13;;;;;;;;;;;;;;;;;;5112605;28;1912;-51
2022/10/20 03:44:40;;;;;;;;;;;;;;;;;;5113379;28;1911;-52
2022/10/20 03:47:07;;;;;;;;;;;;;;;;;;5114752;28;1845;-52
2022/10/20 03:49:34;;;;;;;;;;;;;;;;;;5115026;28;1499;-51
2022/10/20 03:52:01;;;;;;;;;;;;;;;;;;5114431;28;2001;-48
2022/10/20 03:54:28;;;;;;;;;;;;;;;;;;5114538;28;2127;-51
2022/10/20 03:56:55;;;;;;;;;;;;;;;;;;5114518;28;1972;-46
2022/10/20 03:59:22;;;;;;;;;;;;;;;;;;5114599;28;1829;-50
2022/10/20 04:01:52;;;;;;;;;;;;;;;;;;5114656;28;1972;-46
2022/10/20 04:04:20;;;;;;;;;;;;;;;;;;5114307;28;2337;-47
2022/10/20 04:06:47;;;;;;;;;;;;;;;;;;5114443;28;1914;-50
2022/10/20 04:09:14;;;;;;;;;;;;;;;;;;5114732;28;1761;-49
2022/10/20 04:11:41;;;;;;;;;;;;;;;;;;5114246;28;1966;-50
2022/10/20 04:14:09;;;;;;;;;;;;;;;;;;5114313;28;1279;-49
2022/10/20 04:16:36;;;;;;;;;;;;;;;;;;5114107;28;1586;-50
2022/10/20 04:19:03;;;;;;;;;;;;;;;;;;5100322;28;2264;-46
2022/10/20 04:21:30;;;;;;;;;;;;;;;;;;5100634;28;1976;-47
2022/10/20 04:23:57;;;;;;;;;;;;;;;;;;5110631;28;1665;-46
2022/10/20 04:26:24;;;;;;;;;;;;;;;;;;5114033;28;1165;-48
2022/10/20 04:28:52;;;;;;;;;;;;;;;;;;5113978;28;2157;-47
2022/10/20 04:31:19;;;;;;;;;;;;;;;;;;5114132;28;1657;-52
2022/10/20 04:33:46;;;;;;;;;;;;;;;;;;5103337;28;1850;-52
2022/10/20 04:36:14;;;;;;;;;;;;;;;;;;5093567;28;1993;-49
2022/10/20 04:38:41;;;;;;;;;;;;;;;;;;5093710;28;1824;-52
2022/10/20 04:41:08;;;;;;;;;;;;;;;;;;5093377;28;2395;-48
2022/10/20 04:43:35;;;;;;;;;;;;;;;;;;5093480;28;1925;-46
2022/10/20 04:46:03;;;;;;;;;;;;;;;;;;5093257;28;1840;-49
2022/10/20 04:48:35;;;;;;;;;;;;;;;;;;5093310;28;2029;-50
2022/10/20 04:51:03;;;;;;;;;;;;;;;;;;5093289;28;1389;-47
2022/10/20 04:53:30;;;;;;;;;;;;;;;;;;5092240;28;1908;-46
2022/10/20 04:55:57;;;;;;;;;;;;;;;;;;5092939;28;1333;-49
2022/10/20 04:58:25;;;;;;;;;;;;;;;;;;5092892;28;2120;-48
2022/10/20 05:00:52;;;;;;;;;;;;;;;;;;5092969;28;1905;-48
2022/10/20 05:03:19;;;;;;;;;;;;;;;;;;5091466;28;10690;-48
2022/10/20 05:05:47;;;;;;;;;;;;;;;;;;5092946;28;1886;-49
2022/10/20 05:08:15;;;;;;;;;;;;;;;;;;5092938;28;2043;-48
2022/10/20 05:10:42;;;;;;;;;;;;;;;;;;5092893;28;1791;-63
2022/10/20 05:13:09;;;;;;;;;;;;;;;;;;5092810;28;1532;-49
2022/10/20 05:15:36;;;;;;;;;;;;;;;;;;5092618;28;1288;-52
2022/10/20 05:18:03;;;;;;;;;;;;;;;;;;5092700;28;2167;-49
2022/10/20 05:20:30;;;;;;;;;;;;;;;;;;5092662;28;2278;-48
2022/10/20 05:23:02;;;;;;;;;;;;;;;;;;5092579;28;1748;-50
2022/10/20 05:25:29;;;;;;;;;;;;;;;;;;5092490;28;1831;-48
2022/10/20 05:28:02;;;;;;;;;;;;;;;;;;5092407;28;1644;-49
2022/10/20 05:30:30;;;;;;;;;;;;;;;;;;5092438;28;2169;-46
2022/10/20 05:32:57;;;;;;;;;;;;;;;;;;5092000;28;1829;-47
2022/10/20 05:35:24;;;;;;;;;;;;;;;;;;5092178;28;1739;-46
2022/10/20 05:37:51;;;;;;;;;;;;;;;;;;5092481;28;1833;-48
2022/10/20 05:40:18;;;;;;;;;;;;;;;;;;5092008;28;1916;-49
2022/10/20 05:42:45;;;;;;;;;;;;;;;;;;5092003;28;1477;-48
2022/10/20 05:45:12;;;;;;;;;;;;;;;;;;5092108;28;1786;-48
2022/10/20 05:47:39;;;;;;;;;;;;;;;;;;5092200;28;2004;-49
2022/10/20 05:50:06;;;;;;;;;;;;;;;;;;5092142;28;2057;-46
2022/10/20 05:52:34;;;;;;;;;;;;;;;;;;5092101;28;1743;-42
2022/10/20 05:55:02;;;;;;;;;;;;;;;;;;5092132;28;1735;-49
2022/10/20 05:57:29;;;;;;;;;;;;;;;;;;5092097;28;1817;-53
2022/10/20 05:59:56;;;;;;;;;;;;;;;;;;5091931;28;1843;-44
2022/10/20 06:02:23;;;;;;;;;;;;;;;;;;5091974;28;2137;-51
2022/10/20 06:04:50;;;;;;;;;;;;;;;;;;5091901;28;1698;-49
2022/10/20 06:07:17;;;;;;;;;;;;;;;;;;5091654;28;1814;-50
2022/10/20 06:09:44;;;;;;;;;;;;;;;;;;5091892;28;1943;-48
2022/10/20 06:12:11;;;;;;;;;;;;;;;;;;5091757;28;1789;-47
2022/10/20 06:14:38;;;;;;;;;;;;;;;;;;5091702;28;1926;-44
2022/10/20 06:17:05;;;;;;;;;;;;;;;;;;5090471;28;2041;-50
2022/10/20 06:19:32;;;;;;;;;;;;;;;;;;5091601;28;1510;-50
2022/10/20 06:21:59;;;;;;;;;;;;;;;;;;5091393;28;1975;-47
2022/10/20 06:24:29;;;;;;;;;;;;;;;;;;5091473;28;1593;-45
2022/10/20 06:26:56;;;;;;;;;;;;;;;;;;5091386;28;2062;-43
2022/10/20 06:29:23;;;;;;;;;;;;;;;;;;5091556;28;2009;-49
2022/10/20 06:31:53;;;;;;;;;;;;;;;;;;5091490;28;1679;-41
2022/10/20 06:34:22;;;;;;;;;;;;;;;;;;5106552;28;1881;-48
2022/10/20 06:36:49;;;;;;;;;;;;;;;;;;5111712;28;1771;-40
2022/10/20 06:39:18;;;;;;;;;;;;;;;;;;5111868;28;1714;-41
2022/10/20 06:41:47;;;;;;;;;;;;;;;;;;5111746;28;2096;-49
2022/10/20 06:44:18;;;;;;;;;;;;;;;;;;5111535;28;2031;-44
2022/10/20 06:46:45;;;;;;;;;;;;;;;;;;5111784;28;1750;-41
2022/10/20 06:49:12;;;;;;;;;;;;;;;;;;5111627;28;1765;-41
2022/10/20 06:51:40;;;;;;;;;;;;;;;;;;5111548;28;1946;-41
2022/10/20 06:54:08;;;;;;;;;;;;;;;;;;5111581;28;2271;-47
2022/10/20 06:56:35;;;;;;;;;;;;;;;;;;5111313;28;2262;-40
2022/10/20 06:59:02;;;;;;;;;;;;;;;;;;5111660;28;1929;-39
2022/10/20 07:01:34;;;;;;;;;;;;;;;;;;5111549;28;2063;-40
2022/10/20 07:04:12;;;;;;;;;;;;;;;;;;5111287;28;1798;-41
2022/10/20 07:06:41;;;;;;;;;;;;;;;;;;5111276;28;2226;-53
2022/10/20 07:09:11;;;;;;;;;;;;;;;;;;5111362;28;1911;-48
2022/10/20 07:11:38;;;;;;;;;;;;;;;;;;5111629;28;1863;-47
2022/10/20 07:14:05;;;;;;;;;;;;;;;;;;5111258;28;1806;-45
2022/10/20 07:16:33;;;;;;;;;;;;;;;;;;5111788;28;1506;-41
2022/10/20 07:19:01;;;;;;;;;;;;;;;;;;5115366;28;1406;-40
2022/10/20 07:21:30;;;;;;;;;;;;;;;;;;5115495;28;1964;-40
2022/10/20 07:24:02;;;;;;;;;;;;;;;;;;5115359;28;2153;-40
2022/10/20 07:26:30;;;;;;;;;;;;;;;;;;5115285;28;1869;-46
2022/10/20 07:29:00;;;;;;;;;;;;;;;;;;5115381;28;1983;-42
2022/10/20 07:31:28;;;;;;;;;;;;;;;;;;5115434;28;1600;-46
2022/10/20 07:33:59;;;;;;;;;;;;;;;;;;5103337;27;2191;-41
2022/10/20 07:36:41;;;;;;;;;;;;;;;;;;5094692;28;1765;-41
2022/10/20 07:39:09;;;;;;;;;;;;;;;;;;5094369;28;1988;-49
2022/10/20 07:41:38;;;;;;;;;;;;;;;;;;5094723;28;1986;-42
2022/10/20 07:44:06;;;;;;;;;;;;;;;;;;5094496;28;2138;-47
2022/10/20 07:46:34;;;;;;;;;;;;;;;;;;5094176;28;2107;-42
2022/10/20 07:49:03;;;;;;;;;;;;;;;;;;5094419;28;2308;-42
2022/10/20 07:51:50;;;;;;;;;;;;;;;;;;5094168;28;2102;-45
2022/10/20 07:54:18;;;;;;;;;;;;;;;;;;5094238;28;2277;-41
2022/10/20 07:56:45;;;;;;;;;;;;;;;;;;5094401;28;2212;-43
2022/10/20 07:59:13;;;;;;;;;;;;;;;;;;5094219;28;1632;-40
2022/10/20 08:01:40;;;;;;;;;;;;;;;;;;5094254;28;2146;-40
2022/10/20 08:04:07;;;;;;;;;;;;;;;;;;5094070;28;1515;-41
2022/10/20 08:06:35;;;;;;;;;;;;;;;;;;5094000;28;1962;-42
2022/10/20 08:09:05;;;;;;;;;;;;;;;;;;5093888;28;1913;-42
2022/10/20 08:11:32;;;;;;;;;;;;;;;;;;5094110;28;1703;-41
2022/10/20 08:13:59;;;;;;;;;;;;;;;;;;5094309;28;1845;-40
2022/10/20 08:16:27;;;;;;;;;;;;;;;;;;5093860;28;1855;-44
2022/10/20 08:19:00;;;;;;;;;;;;;;;;;;5093343;28;1846;-42
2022/10/20 08:21:42;;;;;;;;;;;;;;;;;;5091133;28;1972;-42
2022/10/20 08:24:09;;;;;;;;;;;;;;;;;;5093860;28;1806;-52
2022/10/20 08:26:36;;;;;;;;;;;;;;;;;;5093809;28;1861;-45
2022/10/20 08:29:03;;;;;;;;;;;;;;;;;;5092526;28;1894;-48
2022/10/20 08:31:30;;;;;;;;;;;;;;;;;;5093609;28;1859;-41
2022/10/20 08:33:58;;;;;;;;;;;;;;;;;;5093828;28;1906;-45
2022/10/20 08:36:28;;;;;;;;;;;;;;;;;;5093225;28;2081;-50
2022/10/20 08:39:00;;;;;;;;;;;;;;;;;;5093464;28;2019;-49
2022/10/20 08:41:32;;;;;;;;;;;;;;;;;;5093513;28;1930;-49
2022/10/20 08:44:14;;;;;;;;;;;;;;;;;;5093383;28;1925;-42
2022/10/20 08:46:42;;;;;;;;;;;;;;;;;;5093202;28;1391;-49
2022/10/20 08:49:14;;;;;;;;;;;;;;;;;;5093303;28;2072;-49
2022/10/20 08:51:42;;;;;;;;;;;;;;;;;;5093339;28;1772;-41
2022/10/20 08:54:11;;;;;;;;;;;;;;;;;;5093101;28;1687;-42
2022/10/20 08:56:38;;;;;;;;;;;;;;;;;;5093091;28;1837;-46
2022/10/20 08:59:34;;;;;;;;;;;;;;;;;;5093193;28;1981;-46
2022/10/20 09:02:12;;;;;;;;;;;;;;;;;;5085162;28;1979;-51
2022/10/20 09:04:46;;;;;;;;;;;;;;;;;;5092873;28;1543;-48
2022/10/20 09:07:33;;;;;;;;;;;;;;;;;;5092818;28;2174;-41
2022/10/20 09:10:19;;;;;;;;;;;;;;;;;;5092972;28;1747;-40
2022/10/20 09:12:48;;;;;;;;;;;;;;;;;;5106427;28;1849;-40
2022/10/20 09:15:16;;;;;;;;;;;;;;;;;;5098130;28;1956;-41
2022/10/20 09:17:52;;;;;;;;;;;;;;;;;;5092669;28;1830;-41
2022/10/20 09:20:21;;;;;;;;;;;;;;;;;;5092766;28;1317;-43
2022/10/20 09:22:48;;;;;;;;;;;;;;;;;;5092442;28;2280;-41
2022/10/20 09:25:17;;;;;;;;;;;;;;;;;;5092658;28;1844;-41
2022/10/20 09:27:44;;;;;;;;;;;;;;;;;;5092697;28;1854;-41
2022/10/20 09:30:22;;;;;;;;;;;;;;;;;;5092666;28;2096;-41
2022/10/20 09:32:53;;;;;;;;;;;;;;;;;;5092198;28;2244;-41
2022/10/20 09:35:22;;;;;;;;;;;;;;;;;;5092308;28;1945;-50
2022/10/20 09:37:52;;;;;;;;;;;;;;;;;;5092389;28;1863;-45
2022/10/20 09:40:20;;;;;;;;;;;;;;;;;;5091829;28;1965;-50
2022/10/20 09:42:49;;;;;;;;;;;;;;;;;;5091912;28;1979;-47
2022/10/20 09:45:27;;;;;;;;;;;;;;;;;;5092163;28;2160;-41
2022/10/20 09:47:58;;;;;;;;;;;;;;;;;;5092187;28;1588;-47
2022/10/20 09:50:30;;;;;;;;;;;;;;;;;;5091951;28;2065;-51
2022/10/20 09:53:00;;;;;;;;;;;;;;;;;;5092161;28;1978;-42
2022/10/20 09:55:34;;;;;;;;;;;;;;;;;;5091925;28;2015;-41
2022/10/20 09:58:02;;;;;;;;;;;;;;;;;;5090680;28;2306;-41
2022/10/20 10:00:31;;;;;;;;;;;;;;;;;;5091970;28;1818;-52
2022/10/20 10:03:13;;;;;;;;;;;;;;;;;;5091424;28;1906;-54
2022/10/20 10:05:40;;;;;;;;;;;;;;;;;;5091964;28;2161;-41
2022/10/20 10:08:12;;;;;;;;;;;;;;;;;;5092097;28;1487;-52
2022/10/20 10:10:40;;;;;;;;;;;;;;;;;;5091958;28;1893;-47
2022/10/20 10:13:19;;;;;;;;;;;;;;;;;;5092016;28;2183;-51
2022/10/20 10:15:58;;;;;;;;;;;;;;;;;;5091607;28;1813;-44
2022/10/20 10:18:25;;;;;;;;;;;;;;;;;;5091608;28;1975;-41
2022/10/20 10:21:03;;;;;;;;;;;;;;;;;;5091378;28;1948;-52
2022/10/20 10:23:32;;;;;;;;;;;;;;;;;;5091561;28;1914;-50
2022/10/20 10:26:02;;;;;;;;;;;;;;;;;;5091279;28;1985;-46
2022/10/20 10:28:32;;;;;;;;;;;;;;;;;;5091585;28;1902;-49
2022/10/20 10:31:05;;;;;;;;;;;;;;;;;;5091486;28;1982;-44
2022/10/20 10:33:32;;;;;;;;;;;;;;;;;;5100029;28;1995;-41
2022/10/20 10:36:02;;;;;;;;;;;;;;;;;;5111828;28;1490;-46
2022/10/20 10:38:29;;;;;;;;;;;;;;;;;;5111412;28;1974;-44
2022/10/20 10:41:14;;;;;;;;;;;;;;;;;;5111945;28;1908;-47
2022/10/20 10:43:49;;;;;;;;;;;;;;;;;;5111776;28;1982;-40
2022/10/20 10:46:18;;;;;;;;;;;;;;;;;;5111591;28;2005;-41
2022/10/20 10:48:51;;;;;;;;;;;;;;;;;;5111509;28;2174;-41
2022/10/20 10:51:33;;;;;;;;;;;;;;;;;;5111728;28;1891;-41
2022/10/20 10:54:13;;;;;;;;;;;;;;;;;;5115988;28;1964;-44
2022/10/20 10:56:41;;;;;;;;;;;;;;;;;;5116122;28;1411;-42
2022/10/20 10:59:11;;;;;;;;;;;;;;;;;;5115629;28;1575;-39
2022/10/20 11:01:50;;;;;;;;;;;;;;;;;;5115834;28;1707;-44
2022/10/20 11:04:21;;;;;;;;;;;;;;;;;;5115559;28;2105;-40
2022/10/20 11:06:55;;;;;;;;;;;;;;;;;;5115656;28;1963;-40
2022/10/20 11:09:36;;;;;;;;;;;;;;;;;;5115366;28;1925;-41
2022/10/20 11:12:15;;;;;;;;;;;;;;;;;;5115678;28;1656;-42
2022/10/20 11:14:43;;;;;;;;;;;;;;;;;;5115869;28;2017;-40
2022/10/20 11:17:16;;;;;;;;;;;;;;;;;;5115928;28;1389;-41
2022/10/20 11:19:51;;;;;;;;;;;;;;;;;;5115522;28;1989;-45
2022/10/20 11:22:21;;;;;;;;;;;;;;;;;;5115184;27;1971;-50
2022/10/20 11:24:55;;;;;;;;;;;;;;;;;;5115357;28;1918;-51
2022/10/20 11:27:26;;;;;;;;;;;;;;;;;;5115078;28;1978;-47
2022/10/20 11:29:57;;;;;;;;;;;;;;;;;;5115099;28;2037;-40
2022/10/20 11:32:30;;;;;;;;;;;;;;;;;;5115128;28;2119;-41
2022/10/20 11:34:57;;;;;;;;;;;;;;;;;;5094615;28;1968;-40
2022/10/20 11:37:29;;;;;;;;;;;;;;;;;;5094761;28;1821;-41
2022/10/20 11:39:56;;;;;;;;;;;;;;;;;;5094593;28;1847;-44
2022/10/20 11:42:42;;;;;;;;;;;;;;;;;;5094294;28;2185;-48
2022/10/20 11:45:26;;;;;;;;;;;;;;;;;;5094637;28;1393;-47
2022/10/20 11:47:59;;;;;;;;;;;;;;;;;;5094382;28;2289;-49
2022/10/20 11:50:26;;;;;;;;;;;;;;;;;;5094134;28;1753;-42
2022/10/20 11:52:59;;;;;;;;;;;;;;;;;;5094578;28;1741;-46
2022/10/20 11:55:30;;;;;;;;;;;;;;;;;;5092722;28;1935;-43
2022/10/20 11:58:15;;;;;;;;;;;;;;;;;;5094061;28;1884;-40
2022/10/20 12:00:52;;;;;;;;;;;;;;;;;;5094342;28;2166;-41
2022/10/20 12:03:39;;;;;;;;;;;;;;;;;;5093531;28;2429;-40
2022/10/20 12:06:15;;;;;;;;;;;;;;;;;;5092887;28;1868;-40
2022/10/20 12:09:08;;;;;;;;;;;;;;;;;;5094309;28;1426;-44
2022/10/20 12:11:48;;;;;;;;;;;;;;;;;;5093996;28;1670;-52
2022/10/20 12:14:16;;;;;;;;;;;;;;;;;;5094490;28;1778;-41
2022/10/20 12:16:52;;;;;;;;;;;;;;;;;;5094044;28;2023;-41
2022/10/20 12:19:21;;;;;;;;;;;;;;;;;;5093804;28;2092;-41
2022/10/20 12:21:56;;;;;;;;;;;;;;;;;;5093584;28;2326;-40
2022/10/20 12:24:37;;;;;;;;;;;;;;;;;;5093789;28;2126;-42
2022/10/20 12:27:07;;;;;;;;;;;;;;;;;;5092544;28;2304;-42
2022/10/20 12:29:34;;;;;;;;;;;;;;;;;;5093608;28;2143;-42
2022/10/20 12:32:20;;;;;;;;;;;;;;;;;;5093527;28;2218;-40
2022/10/20 12:34:49;;;;;;;;;;;;;;;;;;5112667;28;1926;-41
2022/10/20 12:37:27;;;;;;;;;;;;;;;;;;5114078;28;2094;-41
2022/10/20 12:39:55;;;;;;;;;;;;;;;;;;5113912;28;1937;-41
2022/10/20 12:42:25;;;;;;;;;;;;;;;;;;5094956;28;1994;-40
2022/10/20 12:44:53;;;;;;;;;;;;;;;;;;5092923;28;1731;-41
2022/10/20 12:47:20;;;;;;;;;;;;;;;;;;5093814;28;1785;-48
2022/10/20 12:50:07;;;;;;;;;;;;;;;;;;5093191;28;1916;-40
2022/10/20 12:52:37;;;;;;;;;;;;;;;;;;5091999;28;1974;-41
2022/10/20 12:55:17;;;;;;;;;;;;;;;;;;5093347;28;2100;-41
2022/10/20 12:57:44;;;;;;;;;;;;;;;;;;5092673;28;1830;-53
2022/10/20 13:00:11;;;;;;;;;;;;;;;;;;5092883;28;2051;-49
2022/10/20 13:02:49;;;;;;;;;;;;;;;;;;5092693;28;1906;-45
2022/10/20 13:05:17;;;;;;;;;;;;;;;;;;5092956;28;1820;-47
2022/10/20 13:07:47;;;;;;;;;;;;;;;;;;5092892;28;1624;-40
2022/10/20 13:10:29;;;;;;;;;;;;;;;;;;5092755;28;1761;-49
2022/10/20 13:13:01;;;;;;;;;;;;;;;;;;5092967;28;1662;-46
2022/10/20 13:15:28;;;;;;;;;;;;;;;;;;5092010;28;2275;-38
2022/10/20 13:17:59;;;;;;;;;;;;;;;;;;5092601;28;1836;-43
2022/10/20 13:20:47;;;;;;;;;;;;;;;;;;5092752;28;2172;-48
2022/10/20 13:23:15;;;;;;;;;;;;;;;;;;5092503;28;1976;-52
2022/10/20 13:25:49;;;;;;;;;;;;;;;;;;5092415;28;1717;-46
2022/10/20 13:28:20;;;;;;;;;;;;;;;;;;5092368;28;1826;-41
2022/10/20 13:30:51;;;;;;;;;;;;;;;;;;5092779;28;2051;-50
2022/10/20 13:33:32;;;;;;;;;;;;;;;;;;5092225;28;2072;-41
2022/10/20 13:36:22;;;;;;;;;;;;;;;;;;5092240;28;1950;-40
2022/10/20 13:39:22;;;;;;;;;;;;;;;;;;5092462;28;1927;-46
2022/10/20 13:42:08;;;;;;;;;;;;;;;;;;5069362;28;2030;-45
2022/10/20 13:44:42;;;;;;;;;;;;;;;;;;5092172;28;1989;-40
2022/10/20 13:47:32;;;;;;;;;;;;;;;;;;5092125;28;2103;-43
2022/10/20 13:50:04;;;;;;;;;;;;;;;;;;5091594;28;2208;-40
2022/10/20 13:52:37;;;;;;;;;;;;;;;;;;5092523;28;2110;-41
2022/10/20 13:55:06;;;;;;;;;;;;;;;;;;5091914;28;1534;-38
2022/10/20 13:57:34;;;;;;;;;;;;;;;;;;5091975;28;1840;-40
2022/10/20 14:00:04;;;;;;;;;;;;;;;;;;5091980;28;1991;-40
2022/10/20 14:02:37;;;;;;;;;;;;;;;;;;5091381;28;2096;-40
2022/10/20 14:05:12;;;;;;;;;;;;;;;;;;5091903;28;1721;-40
2022/10/20 14:07:40;;;;;;;;;;;;;;;;;;5091559;28;1780;-40
2022/10/20 14:10:21;;;;;;;;;;;;;;;;;;5091706;28;2152;-40
2022/10/20 14:12:49;;;;;;;;;;;;;;;;;;5091538;28;2000;-40
2022/10/20 14:15:21;;;;;;;;;;;;;;;;;;5091586;28;1951;-40
2022/10/20 14:17:56;;;;;;;;;;;;;;;;;;5091656;28;1424;-42
2022/10/20 14:20:24;;;;;;;;;;;;;;;;;;5091545;28;1715;-40
2022/10/20 14:22:52;;;;;;;;;;;;;;;;;;5090462;28;2130;-41
2022/10/20 14:25:20;;;;;;;;;;;;;;;;;;5091379;28;1848;-40
2022/10/20 14:27:50;;;;;;;;;;;;;;;;;;5091590;28;1713;-39
2022/10/20 14:30:17;;;;;;;;;;;;;;;;;;5091321;28;2257;-45
2022/10/20 14:32:45;;;;;;;;;;;;;;;;;;5093485;28;1779;-44
2022/10/20 14:35:24;;;;;;;;;;;;;;;;;;5111613;28;1797;-50
2022/10/20 14:37:54;;;;;;;;;;;;;;;;;;5111721;28;1857;-46
2022/10/20 14:40:31;;;;;;;;;;;;;;;;;;5111541;28;1822;-49
2022/10/20 14:43:00;;;;;;;;;;;;;;;;;;5111553;28;1905;-48
2022/10/20 14:45:28;;;;;;;;;;;;;;;;;;5111527;28;1410;-41
2022/10/20 14:48:01;;;;;;;;;;;;;;;;;;5111485;28;2147;-41
2022/10/20 14:50:33;;;;;;;;;;;;;;;;;;5111466;28;1967;-45
2022/10/20 14:53:16;;;;;;;;;;;;;;;;;;5111480;28;1728;-40
2022/10/20 14:55:44;;;;;;;;;;;;;;;;;;5111441;28;1886;-49
2022/10/20 14:58:29;;;;;;;;;;;;;;;;;;5111220;28;1708;-40
2022/10/20 15:01:15;;;;;;;;;;;;;;;;;;5111618;28;1664;-45
2022/10/20 15:03:43;;;;;;;;;;;;;;;;;;5111256;28;2230;-40
2022/10/20 15:06:15;;;;;;;;;;;;;;;;;;5111299;28;1772;-45
2022/10/20 15:08:51;;;;;;;;;;;;;;;;;;5111285;28;1907;-50
2022/10/20 15:11:22;;;;;;;;;;;;;;;;;;5111176;28;1925;-43
2022/10/20 15:13:51;;;;;;;;;;;;;;;;;;5111296;28;1842;-49
2022/10/20 15:16:34;;;;;;;;;;;;;;;;;;5111129;28;1608;-51
2022/10/20 15:19:24;;;;;;;;;;;;;;;;;;5111246;28;2430;-41
2022/10/20 15:21:56;;;;;;;;;;;;;;;;;;5109409;28;1934;-41
2022/10/20 15:24:23;;;;;;;;;;;;;;;;;;5110998;28;2267;-49
2022/10/20 15:26:52;;;;;;;;;;;;;;;;;;5111110;28;1485;-49
2022/10/20 15:29:21;;;;;;;;;;;;;;;;;;5111102;28;2265;-50
2022/10/20 15:31:49;;;;;;;;;;;;;;;;;;5111083;28;1665;-50
2022/10/20 15:34:16;;;;;;;;;;;;;;;;;;5106188;28;2000;-49
2022/10/20 15:36:45;;;;;;;;;;;;;;;;;;5090857;28;2265;-51
2022/10/20 15:39:15;;;;;;;;;;;;;;;;;;5093744;28;1717;-46
2022/10/20 15:41:43;;;;;;;;;;;;;;;;;;5094463;28;2143;-45
2022/10/20 15:44:16;;;;;;;;;;;;;;;;;;5094470;28;1933;-51
2022/10/20 15:46:46;;;;;;;;;;;;;;;;;;5094201;28;1990;-47
2022/10/20 15:49:13;;;;;;;;;;;;;;;;;;5094479;28;1602;-51
2022/10/20 15:51:46;;;;;;;;;;;;;;;;;;5094252;28;2142;-49
2022/10/20 15:54:15;;;;;;;;;;;;;;;;;;5094267;28;1903;-48
2022/10/20 15:56:42;;;;;;;;;;;;;;;;;;5094016;28;1765;-52
2022/10/20 15:59:09;;;;;;;;;;;;;;;;;;5094323;28;1506;-48
2022/10/20 16:01:37;;;;;;;;;;;;;;;;;;5094249;28;1921;-49
2022/10/20 16:04:32;;;;;;;;;;;;;;;;;;5093728;28;1985;-54
2022/10/20 16:07:00;;;;;;;;;;;;;;;;;;5092589;28;2012;-50
2022/10/20 16:09:29;;;;;;;;;;;;;;;;;;5091947;28;9575;-45
2022/10/20 16:11:56;;;;;;;;;;;;;;;;;;5093457;28;1622;-49
2022/10/20 16:14:23;;;;;;;;;;;;;;;;;;5093955;28;1904;-45
2022/10/20 16:16:50;;;;;;;;;;;;;;;;;;5093997;28;1484;-48
2022/10/20 16:19:25;;;;;;;;;;;;;;;;;;5091577;28;2241;-41
2022/10/20 16:21:53;;;;;;;;;;;;;;;;;;5091530;28;1600;-47
2022/10/20 16:24:20;;;;;;;;;;;;;;;;;;5091656;28;2372;-45
2022/10/20 16:26:47;;;;;;;;;;;;;;;;;;5092537;28;1902;-48
2022/10/20 16:29:16;;;;;;;;;;;;;;;;;;5092773;28;1948;-53
2022/10/20 16:31:46;;;;;;;;;;;;;;;;;;5092680;28;1981;-41
2022/10/20 16:34:14;;;;;;;;;;;;;;;;;;5092933;28;1918;-42
2022/10/20 16:36:42;;;;;;;;;;;;;;;;;;5093393;28;2075;-45
2022/10/20 16:39:10;;;;;;;;;;;;;;;;;;5093521;28;1788;-42
2022/10/20 16:41:37;;;;;;;;;;;;;;;;;;5093472;28;2012;-44
2022/10/20 16:44:05;;;;;;;;;;;;;;;;;;5093596;28;2000;-44
2022/10/20 16:46:32;;;;;;;;;;;;;;;;;;5093271;28;1650;-40
2022/10/20 16:48:59;;;;;;;;;;;;;;;;;;5092477;28;2104;-43
2022/10/20 16:51:28;;;;;;;;;;;;;;;;;;5092779;28;1877;-44
2022/10/20 16:53:58;;;;;;;;;;;;;;;;;;5093035;28;1864;-48
2022/10/20 16:56:29;;;;;;;;;;;;;;;;;;5092413;28;1958;-45
2022/10/20 16:58:55;;;;;;;;;;;;;;;;;;5093035;28;1459;-43
2022/10/20 17:01:23;;;;;;;;;;;;;;;;;;5092715;28;1910;-42
2022/10/20 17:03:52;;;;;;;;;;;;;;;;;;5092491;28;1919;-45
2022/10/20 17:06:22;;;;;;;;;;;;;;;;;;5092791;28;2088;-46
2022/10/20 17:08:51;;;;;;;;;;;;;;;;;;5092791;28;1973;-49
2022/10/20 17:11:20;;;;;;;;;;;;;;;;;;5092742;28;1560;-47
2022/10/20 17:13:49;;;;;;;;;;;;;;;;;;5092650;28;2072;-48
2022/10/20 17:16:18;;;;;;;;;;;;;;;;;;5092478;28;1798;-50
2022/10/20 17:18:46;;;;;;;;;;;;;;;;;;5092756;28;1277;-48
2022/10/20 17:21:14;;;;;;;;;;;;;;;;;;5091959;28;1807;-50
2022/10/20 17:23:43;;;;;;;;;;;;;;;;;;5092445;28;1910;-49
2022/10/20 17:26:11;;;;;;;;;;;;;;;;;;5092222;28;1662;-46
2022/10/20 17:28:39;;;;;;;;;;;;;;;;;;5092579;28;1843;-43